createdAt,value
2019-05-25T00:00:57.866Z,1007.81
2019-05-25T00:01:57.840Z,1007.78
2019-05-25T00:02:57.835Z,1007.77
2019-05-25T00:03:57.815Z,1007.77
2019-05-25T00:04:57.796Z,1007.77
2019-05-25T00:05:57.792Z,1007.79
2019-05-25T00:06:57.774Z,1007.82
2019-05-25T00:07:57.852Z,1007.84
2019-05-25T00:08:57.755Z,1007.79
2019-05-25T00:09:57.752Z,1007.85
2019-05-25T00:10:57.728Z,1007.83
2019-05-25T00:11:57.722Z,1007.83
2019-05-25T00:12:57.777Z,1007.81
2019-05-25T00:13:57.785Z,1007.82
2019-05-25T00:14:57.774Z,1007.83
2019-05-25T00:15:57.674Z,1007.81
2019-05-25T00:16:57.670Z,1007.84
2019-05-25T00:17:57.656Z,1007.89
2019-05-25T00:18:57.730Z,1007.92
2019-05-25T00:19:57.636Z,1007.90
2019-05-25T00:20:57.626Z,1007.88
2019-05-25T00:21:57.613Z,1007.91
2019-05-25T00:22:57.598Z,1007.93
2019-05-25T00:24:11.166Z,1007.97
2019-05-25T00:24:58.579Z,1007.95
2019-05-25T00:25:57.564Z,1007.94
2019-05-25T00:26:57.555Z,1007.95
2019-05-25T00:27:57.543Z,1007.94
2019-05-25T00:28:57.535Z,1007.94
2019-05-25T00:29:57.605Z,1007.93
2019-05-25T00:30:57.507Z,1007.92
2019-05-25T00:31:57.498Z,1007.93
2019-05-25T00:32:57.492Z,1007.97
2019-05-25T00:33:57.479Z,1008.01
2019-05-25T00:34:57.521Z,1007.96
2019-05-25T00:35:57.454Z,1007.98
2019-05-25T00:36:57.437Z,1007.99
2019-05-25T00:37:57.434Z,1008.01
2019-05-25T00:38:57.429Z,1007.99
2019-05-25T00:39:57.420Z,1008.01
2019-05-25T00:40:57.408Z,1008.03
2019-05-25T00:41:57.398Z,1008.00
2019-05-25T00:42:57.381Z,1008.02
2019-05-25T00:43:57.363Z,1008.05
2019-05-25T00:44:57.354Z,1008.10
2019-05-25T00:45:57.454Z,1008.11
2019-05-25T00:46:57.334Z,1008.05
2019-05-25T00:47:57.323Z,1008.09
2019-05-25T00:48:57.312Z,1008.05
2019-05-25T00:49:57.307Z,1008.09
2019-05-25T00:50:57.345Z,1008.11
2019-05-25T00:51:57.279Z,1008.11
2019-05-25T00:52:57.270Z,1008.11
2019-05-25T00:53:57.256Z,1008.10
2019-05-25T00:54:57.245Z,1008.11
2019-05-25T00:55:57.239Z,1008.09
2019-05-25T00:56:57.285Z,1008.05
2019-05-25T00:57:57.213Z,1008.07
2019-05-25T00:58:57.198Z,1008.08
2019-05-25T00:59:57.189Z,1008.09
2019-05-25T01:00:57.190Z,1008.14
2019-05-25T01:01:57.278Z,1008.15
2019-05-25T01:02:57.162Z,1008.15
2019-05-25T01:03:57.146Z,1008.14
2019-05-25T01:04:57.132Z,1008.23
2019-05-25T01:05:57.124Z,1008.18
2019-05-25T01:06:57.197Z,1008.19
2019-05-25T01:07:57.098Z,1008.17
2019-05-25T01:08:57.097Z,1008.18
2019-05-25T01:09:57.077Z,1008.21
2019-05-25T01:10:57.066Z,1008.23
2019-05-25T01:11:57.054Z,1008.24
2019-05-25T01:12:57.161Z,1008.24
2019-05-25T01:13:57.032Z,1008.21
2019-05-25T01:14:57.022Z,1008.23
2019-05-25T01:15:57.010Z,1008.24
2019-05-25T01:16:57.004Z,1008.20
2019-05-25T01:17:57.068Z,1008.24
2019-05-25T01:18:56.994Z,1008.23
2019-05-25T01:19:56.972Z,1008.27
2019-05-25T01:20:56.964Z,1008.23
2019-05-25T01:21:56.949Z,1008.29
2019-05-25T01:22:56.938Z,1008.22
2019-05-25T01:23:56.935Z,1008.25
2019-05-25T01:24:56.909Z,1008.24
2019-05-25T01:25:56.906Z,1008.21
2019-05-25T01:26:56.893Z,1008.24
2019-05-25T01:27:56.879Z,1008.29
2019-05-25T01:28:56.882Z,1008.28
2019-05-25T01:29:56.859Z,1008.28
2019-05-25T01:30:56.880Z,1008.28
2019-05-25T01:31:56.832Z,1008.29
2019-05-25T01:32:56.831Z,1008.33
2019-05-25T01:33:56.899Z,1008.31
2019-05-25T01:34:56.799Z,1008.31
2019-05-25T01:35:56.800Z,1008.28
2019-05-25T01:36:56.793Z,1008.29
2019-05-25T01:37:56.839Z,1008.26
2019-05-25T01:38:56.871Z,1008.31
2019-05-25T01:39:56.746Z,1008.27
2019-05-25T01:40:56.734Z,1008.29
2019-05-25T01:41:56.725Z,1008.28
2019-05-25T01:42:56.710Z,1008.29
2019-05-25T01:43:56.698Z,1008.34
2019-05-25T01:44:56.777Z,1008.30
2019-05-25T01:45:56.705Z,1008.32
2019-05-25T01:46:56.671Z,1008.34
2019-05-25T01:47:56.664Z,1008.30
2019-05-25T01:48:56.643Z,1008.34
2019-05-25T01:49:56.689Z,1008.30
2019-05-25T01:50:56.624Z,1008.35
2019-05-25T01:51:56.614Z,1008.37
2019-05-25T01:52:56.607Z,1008.37
2019-05-25T01:53:56.601Z,1008.34
2019-05-25T01:54:59.900Z,1008.37
2019-05-25T01:55:56.575Z,1008.36
2019-05-25T01:56:56.559Z,1008.37
2019-05-25T01:57:56.543Z,1008.42
2019-05-25T01:58:56.543Z,1008.42
2019-05-25T01:59:56.524Z,1008.45
2019-05-25T02:00:56.602Z,1008.42
2019-05-25T02:01:56.508Z,1008.38
2019-05-25T02:02:56.491Z,1008.43
2019-05-25T02:03:56.478Z,1008.41
2019-05-25T02:04:56.469Z,1008.44
2019-05-25T02:05:56.541Z,1008.42
2019-05-25T02:06:56.445Z,1008.46
2019-05-25T02:07:56.431Z,1008.43
2019-05-25T02:08:56.429Z,1008.47
2019-05-25T02:09:56.413Z,1008.49
2019-05-25T02:10:56.409Z,1008.44
2019-05-25T02:11:56.476Z,1008.46
2019-05-25T02:12:56.382Z,1008.44
2019-05-25T02:13:56.365Z,1008.45
2019-05-25T02:14:56.362Z,1008.45
2019-05-25T02:15:56.346Z,1008.45
2019-05-25T02:16:56.343Z,1008.42
2019-05-25T02:17:56.338Z,1008.46
2019-05-25T02:18:56.309Z,1008.41
2019-05-25T02:19:56.312Z,1008.43
2019-05-25T02:20:56.293Z,1008.45
2019-05-25T02:21:56.284Z,1008.46
2019-05-25T02:22:56.338Z,1008.44
2019-05-25T02:23:56.260Z,1008.46
2019-05-25T02:24:56.242Z,1008.47
2019-05-25T02:25:56.234Z,1008.42
2019-05-25T02:26:56.237Z,1008.53
2019-05-25T02:27:56.211Z,1008.51
2019-05-25T02:28:56.272Z,1008.51
2019-05-25T02:29:56.196Z,1008.49
2019-05-25T02:30:56.178Z,1008.48
2019-05-25T02:31:56.171Z,1008.49
2019-05-25T02:32:56.268Z,1008.58
2019-05-25T02:33:56.163Z,1008.58
2019-05-25T02:34:56.138Z,1008.63
2019-05-25T02:35:56.125Z,1008.66
2019-05-25T02:36:56.112Z,1008.63
2019-05-25T02:37:56.118Z,1008.61
2019-05-25T02:38:56.204Z,1008.64
2019-05-25T02:39:56.086Z,1008.64
2019-05-25T02:40:56.067Z,1008.64
2019-05-25T02:41:56.055Z,1008.62
2019-05-25T02:42:56.051Z,1008.60
2019-05-25T02:43:56.099Z,1008.63
2019-05-25T02:44:56.027Z,1008.61
2019-05-25T02:45:56.011Z,1008.66
2019-05-25T02:46:55.999Z,1008.66
2019-05-25T02:47:55.994Z,1008.63
2019-05-25T02:48:56.056Z,1008.62
2019-05-25T02:49:55.973Z,1008.60
2019-05-25T02:50:55.957Z,1008.55
2019-05-25T02:51:55.945Z,1008.59
2019-05-25T02:52:55.944Z,1008.59
2019-05-25T02:53:55.931Z,1008.59
2019-05-25T02:54:55.929Z,1008.61
2019-05-25T02:55:55.902Z,1008.60
2019-05-25T02:56:55.906Z,1008.60
2019-05-25T02:57:55.885Z,1008.63
2019-05-25T02:58:56.181Z,1008.61
2019-05-25T02:59:55.947Z,1008.62
2019-05-25T03:00:55.937Z,1008.64
2019-05-25T03:01:55.836Z,1008.65
2019-05-25T03:02:55.828Z,1008.64
2019-05-25T03:03:55.899Z,1008.66
2019-05-25T03:04:55.814Z,1008.61
2019-05-25T03:05:55.796Z,1008.65
2019-05-25T03:06:55.789Z,1008.70
2019-05-25T03:07:55.778Z,1008.73
2019-05-25T03:08:55.872Z,1008.73
2019-05-25T03:09:55.750Z,1008.74
2019-05-25T03:10:55.742Z,1008.78
2019-05-25T03:11:55.729Z,1008.78
2019-05-25T03:12:55.717Z,1008.71
2019-05-25T03:13:55.711Z,1008.74
2019-05-25T03:14:55.778Z,1008.75
2019-05-25T03:15:55.689Z,1008.75
2019-05-25T03:16:55.667Z,1008.72
2019-05-25T03:17:55.656Z,1008.71
2019-05-25T03:18:55.644Z,1008.79
2019-05-25T03:19:55.644Z,1008.78
2019-05-25T03:20:55.715Z,1008.76
2019-05-25T03:21:55.707Z,1008.77
2019-05-25T03:22:55.608Z,1008.75
2019-05-25T03:23:55.594Z,1008.78
2019-05-25T03:24:55.579Z,1008.80
2019-05-25T03:25:55.603Z,1008.82
2019-05-25T03:26:55.559Z,1008.78
2019-05-25T03:27:55.549Z,1008.81
2019-05-25T03:28:55.537Z,1008.82
2019-05-25T03:29:55.534Z,1008.79
2019-05-25T03:30:55.518Z,1008.81
2019-05-25T03:31:55.525Z,1008.84
2019-05-25T03:32:55.495Z,1008.85
2019-05-25T03:33:55.483Z,1008.83
2019-05-25T03:34:55.472Z,1008.87
2019-05-25T03:35:55.456Z,1008.88
2019-05-25T03:36:55.450Z,1008.86
2019-05-25T03:37:55.546Z,1008.88
2019-05-25T03:38:55.424Z,1008.89
2019-05-25T03:39:55.417Z,1008.87
2019-05-25T03:40:55.402Z,1008.92
2019-05-25T03:41:55.499Z,1008.93
2019-05-25T03:42:55.486Z,1008.92
2019-05-25T03:43:55.364Z,1008.91
2019-05-25T03:44:55.358Z,1008.92
2019-05-25T03:45:55.341Z,1008.93
2019-05-25T03:46:55.330Z,1008.94
2019-05-25T03:47:55.408Z,1008.94
2019-05-25T03:48:55.396Z,1008.91
2019-05-25T03:49:55.302Z,1008.96
2019-05-25T03:50:55.301Z,1008.99
2019-05-25T03:51:55.274Z,1008.98
2019-05-25T03:52:55.268Z,1008.96
2019-05-25T03:53:55.340Z,1008.98
2019-05-25T03:54:55.256Z,1008.95
2019-05-25T03:56:05.236Z,1008.98
2019-05-25T03:56:56.221Z,1008.98
2019-05-25T03:57:55.206Z,1008.99
2019-05-25T03:58:55.199Z,1009.00
2019-05-25T03:59:55.271Z,1008.97
2019-05-25T04:00:55.174Z,1008.99
2019-05-25T04:01:55.166Z,1008.98
2019-05-25T04:02:55.154Z,1008.98
2019-05-25T04:03:55.143Z,1008.93
2019-05-25T04:04:55.219Z,1008.95
2019-05-25T04:05:55.127Z,1008.96
2019-05-25T04:06:55.104Z,1008.98
2019-05-25T04:07:55.094Z,1008.94
2019-05-25T04:08:55.085Z,1008.92
2019-05-25T04:09:55.072Z,1008.93
2019-05-25T04:10:55.149Z,1008.97
2019-05-25T04:11:55.062Z,1008.99
2019-05-25T04:12:55.037Z,1008.99
2019-05-25T04:13:55.143Z,1009.00
2019-05-25T04:14:55.019Z,1009.00
2019-05-25T04:15:55.094Z,1008.98
2019-05-25T04:16:54.999Z,1008.96
2019-05-25T04:17:55.033Z,1008.93
2019-05-25T04:18:54.978Z,1008.93
2019-05-25T04:19:54.969Z,1008.87
2019-05-25T04:20:54.976Z,1008.91
2019-05-25T04:21:55.029Z,1008.90
2019-05-25T04:22:54.932Z,1008.90
2019-05-25T04:23:54.916Z,1008.88
2019-05-25T04:24:54.905Z,1008.90
2019-05-25T04:25:54.983Z,1008.88
2019-05-25T04:27:02.490Z,1008.93
2019-05-25T04:27:54.878Z,1008.92
2019-05-25T04:28:54.865Z,1008.97
2019-05-25T04:29:54.848Z,1009.01
2019-05-25T04:30:54.903Z,1009.00
2019-05-25T04:31:54.841Z,1009.01
2019-05-25T04:32:54.824Z,1009.05
2019-05-25T04:33:54.804Z,1009.04
2019-05-25T04:34:54.796Z,1009.08
2019-05-25T04:35:54.783Z,1009.12
2019-05-25T04:36:54.858Z,1009.13
2019-05-25T04:37:54.761Z,1009.15
2019-05-25T04:38:54.789Z,1009.16
2019-05-25T04:39:54.739Z,1009.17
2019-05-25T04:40:54.732Z,1009.17
2019-05-25T04:41:54.728Z,1009.16
2019-05-25T04:42:54.739Z,1009.16
2019-05-25T04:43:54.699Z,1009.17
2019-05-25T04:44:54.685Z,1009.16
2019-05-25T04:45:54.674Z,1009.15
2019-05-25T04:46:54.658Z,1009.19
2019-05-25T04:47:54.738Z,1009.23
2019-05-25T04:48:54.642Z,1009.23
2019-05-25T04:49:54.626Z,1009.23
2019-05-25T04:50:54.616Z,1009.20
2019-05-25T04:51:54.609Z,1009.19
2019-05-25T04:52:54.611Z,1009.26
2019-05-25T04:53:54.586Z,1009.25
2019-05-25T04:54:54.604Z,1009.27
2019-05-25T04:55:54.567Z,1009.28
2019-05-25T04:56:54.608Z,1009.28
2019-05-25T04:57:54.542Z,1009.31
2019-05-25T04:58:54.535Z,1009.33
2019-05-25T04:59:54.520Z,1009.34
2019-05-25T05:00:54.504Z,1009.31
2019-05-25T05:01:54.523Z,1009.34
2019-05-25T05:02:54.503Z,1009.35
2019-05-25T05:03:54.587Z,1009.38
2019-05-25T05:04:54.458Z,1009.36
2019-05-25T05:05:54.454Z,1009.39
2019-05-25T05:06:54.508Z,1009.38
2019-05-25T05:07:54.513Z,1009.38
2019-05-25T05:08:54.422Z,1009.41
2019-05-25T05:10:02.559Z,1009.39
2019-05-25T05:10:55.396Z,1009.41
2019-05-25T05:11:54.384Z,1009.43
2019-05-25T05:12:54.481Z,1009.45
2019-05-25T05:13:54.451Z,1009.42
2019-05-25T05:14:56.439Z,1009.43
2019-05-25T05:15:54.340Z,1009.42
2019-05-25T05:16:54.348Z,1009.42
2019-05-25T05:17:54.364Z,1009.49
2019-05-25T05:18:54.309Z,1009.41
2019-05-25T05:19:54.297Z,1009.43
2019-05-25T05:20:54.287Z,1009.44
2019-05-25T05:21:54.277Z,1009.41
2019-05-25T05:22:54.257Z,1009.43
2019-05-25T05:23:54.360Z,1009.42
2019-05-25T05:24:54.246Z,1009.43
2019-05-25T05:25:54.228Z,1009.40
2019-05-25T05:26:56.166Z,1009.41
2019-05-25T05:27:54.204Z,1009.42
2019-05-25T05:28:54.281Z,1009.42
2019-05-25T05:29:54.181Z,1009.39
2019-05-25T05:30:54.206Z,1009.42
2019-05-25T05:31:54.164Z,1009.39
2019-05-25T05:32:54.149Z,1009.43
2019-05-25T05:33:54.140Z,1009.46
2019-05-25T05:34:54.131Z,1009.39
2019-05-25T05:35:54.122Z,1009.42
2019-05-25T05:36:54.115Z,1009.42
2019-05-25T05:37:54.104Z,1009.41
2019-05-25T05:38:54.082Z,1009.42
2019-05-25T05:39:54.076Z,1009.41
2019-05-25T05:40:54.064Z,1009.37
2019-05-25T05:41:54.060Z,1009.45
2019-05-25T05:42:54.042Z,1009.44
2019-05-25T05:43:54.062Z,1009.40
2019-05-25T05:44:54.018Z,1009.45
2019-05-25T05:45:54.012Z,1009.43
2019-05-25T05:46:54.084Z,1009.48
2019-05-25T05:47:54.057Z,1009.45
2019-05-25T05:48:53.978Z,1009.54
2019-05-25T05:49:53.967Z,1009.49
2019-05-25T05:50:53.951Z,1009.47
2019-05-25T05:51:53.957Z,1009.42
2019-05-25T05:52:54.018Z,1009.46
2019-05-25T05:53:53.922Z,1009.44
2019-05-25T05:54:53.910Z,1009.49
2019-05-25T05:55:53.893Z,1009.50
2019-05-25T05:56:53.891Z,1009.51
2019-05-25T05:57:53.877Z,1009.57
2019-05-25T05:58:53.875Z,1009.56
2019-05-25T05:59:53.853Z,1009.57
2019-05-25T06:00:53.843Z,1009.61
2019-05-25T06:01:53.838Z,1009.56
2019-05-25T06:02:53.854Z,1009.60
2019-05-25T06:03:53.919Z,1009.51
2019-05-25T06:04:53.882Z,1009.56
2019-05-25T06:05:53.789Z,1009.62
2019-05-25T06:06:53.777Z,1009.56
2019-05-25T06:07:53.766Z,1009.60
2019-05-25T06:08:53.757Z,1009.61
2019-05-25T06:09:53.836Z,1009.62
2019-05-25T06:10:53.732Z,1009.61
2019-05-25T06:11:53.720Z,1009.64
2019-05-25T06:12:53.712Z,1009.69
2019-05-25T06:13:53.696Z,1009.71
2019-05-25T06:14:53.774Z,1009.68
2019-05-25T06:15:55.856Z,1009.65
2019-05-25T06:16:53.662Z,1009.61
2019-05-25T06:17:53.655Z,1009.69
2019-05-25T06:18:53.641Z,1009.72
2019-05-25T06:19:53.741Z,1009.71
2019-05-25T06:20:53.637Z,1009.77
2019-05-25T06:21:53.611Z,1009.73
2019-05-25T06:22:53.601Z,1009.73
2019-05-25T06:23:53.585Z,1009.80
2019-05-25T06:24:53.585Z,1009.70
2019-05-25T06:25:53.586Z,1009.78
2019-05-25T06:26:53.555Z,1009.76
2019-05-25T06:27:53.539Z,1009.77
2019-05-25T06:28:53.530Z,1009.82
2019-05-25T06:29:54.503Z,1009.88
2019-05-25T06:30:53.596Z,1009.81
2019-05-25T06:31:53.501Z,1009.79
2019-05-25T06:32:53.503Z,1009.87
2019-05-25T06:33:53.473Z,1009.87
2019-05-25T06:34:53.461Z,1009.80
2019-05-25T06:35:53.462Z,1009.86
2019-05-25T06:36:53.444Z,1009.84
2019-05-25T06:37:53.433Z,1009.86
2019-05-25T06:38:53.419Z,1009.91
2019-05-25T06:39:53.410Z,1009.86
2019-05-25T06:40:53.487Z,1009.90
2019-05-25T06:41:53.391Z,1009.86
2019-05-25T06:42:53.373Z,1009.97
2019-05-25T06:43:53.399Z,1009.96
2019-05-25T06:44:53.357Z,1009.98
2019-05-25T06:45:53.429Z,1009.99
2019-05-25T06:46:53.329Z,1009.97
2019-05-25T06:47:53.325Z,1010.01
2019-05-25T06:48:53.313Z,1009.99
2019-05-25T06:49:53.302Z,1010.00
2019-05-25T06:50:53.291Z,1010.06
2019-05-25T06:51:53.388Z,1010.00
2019-05-25T06:52:53.268Z,1010.01
2019-05-25T06:53:53.425Z,1010.07
2019-05-25T06:54:53.252Z,1010.07
2019-05-25T06:55:53.231Z,1010.13
2019-05-25T06:56:53.308Z,1010.18
2019-05-25T06:57:53.214Z,1010.13
2019-05-25T06:58:53.213Z,1010.12
2019-05-25T06:59:53.192Z,1010.18
2019-05-25T07:00:53.184Z,1010.12
2019-05-25T07:01:53.164Z,1010.21
2019-05-25T07:02:53.220Z,1010.19
2019-05-25T07:03:53.148Z,1010.23
2019-05-25T07:04:53.138Z,1010.25
2019-05-25T07:05:53.121Z,1010.23
2019-05-25T07:06:53.117Z,1010.26
2019-05-25T07:07:54.754Z,1010.23
2019-05-25T07:08:53.092Z,1010.21
2019-05-25T07:09:53.076Z,1010.19
2019-05-25T07:10:53.072Z,1010.22
2019-05-25T07:11:53.083Z,1010.27
2019-05-25T07:12:53.155Z,1010.29
2019-05-25T07:13:53.034Z,1010.29
2019-05-25T07:14:53.130Z,1010.27
2019-05-25T07:15:53.009Z,1010.26
2019-05-25T07:16:53.001Z,1010.24
2019-05-25T07:17:52.993Z,1010.26
2019-05-25T07:18:53.020Z,1010.22
2019-05-25T07:19:52.977Z,1010.22
2019-05-25T07:20:53.065Z,1010.23
2019-05-25T07:21:52.948Z,1010.22
2019-05-25T07:22:52.939Z,1010.25
2019-05-25T07:23:52.926Z,1010.32
2019-05-25T07:24:52.921Z,1010.29
2019-05-25T07:25:53.107Z,1010.32
2019-05-25T07:26:52.900Z,1010.35
2019-05-25T07:27:59.732Z,1010.30
2019-05-25T07:28:53.868Z,1010.29
2019-05-25T07:29:52.942Z,1010.31
2019-05-25T07:30:52.843Z,1010.26
2019-05-25T07:31:52.833Z,1010.27
2019-05-25T07:32:52.828Z,1010.33
2019-05-25T07:33:52.816Z,1010.35
2019-05-25T07:34:52.802Z,1010.27
2019-05-25T07:35:52.879Z,1010.34
2019-05-25T07:36:52.774Z,1010.36
2019-05-25T07:37:52.775Z,1010.25
2019-05-25T07:38:52.754Z,1010.31
2019-05-25T07:39:52.749Z,1010.29
2019-05-25T07:40:52.743Z,1010.30
2019-05-25T07:41:52.808Z,1010.31
2019-05-25T07:42:52.719Z,1010.24
2019-05-25T07:43:52.702Z,1010.27
2019-05-25T07:44:52.686Z,1010.33
2019-05-25T07:45:52.674Z,1010.31
2019-05-25T07:46:52.706Z,1010.34
2019-05-25T07:47:52.652Z,1010.37
2019-05-25T07:48:52.701Z,1010.32
2019-05-25T07:49:52.636Z,1010.32
2019-05-25T07:50:52.620Z,1010.30
2019-05-25T07:51:52.632Z,1010.33
2019-05-25T07:52:52.597Z,1010.31
2019-05-25T07:53:52.704Z,1010.36
2019-05-25T07:54:52.580Z,1010.35
2019-05-25T07:55:52.563Z,1010.34
2019-05-25T07:56:52.642Z,1010.34
2019-05-25T07:57:52.540Z,1010.36
2019-05-25T07:58:52.535Z,1010.34
2019-05-25T07:59:52.536Z,1010.38
2019-05-25T08:00:53.022Z,1010.44
2019-05-25T08:01:52.523Z,1010.38
2019-05-25T08:02:52.489Z,1010.45
2019-05-25T08:03:52.480Z,1010.45
2019-05-25T08:04:52.549Z,1010.43
2019-05-25T08:05:52.457Z,1010.45
2019-05-25T08:06:52.444Z,1010.43
2019-05-25T08:07:52.434Z,1010.46
2019-05-25T08:08:52.484Z,1010.47
2019-05-25T08:09:52.407Z,1010.53
2019-05-25T08:10:52.465Z,1010.51
2019-05-25T08:11:52.384Z,1010.50
2019-05-25T08:12:52.373Z,1010.55
2019-05-25T08:13:52.364Z,1010.51
2019-05-25T08:14:52.376Z,1010.57
2019-05-25T08:15:52.429Z,1010.56
2019-05-25T08:16:52.349Z,1010.52
2019-05-25T08:17:52.389Z,1010.55
2019-05-25T08:18:52.308Z,1010.56
2019-05-25T08:19:52.306Z,1010.53
2019-05-25T08:20:52.370Z,1010.54
2019-05-25T08:21:52.343Z,1010.48
2019-05-25T08:22:52.273Z,1010.51
2019-05-25T08:23:52.248Z,1010.51
2019-05-25T08:24:52.240Z,1010.49
2019-05-25T08:25:52.262Z,1010.51
2019-05-25T08:26:52.225Z,1010.51
2019-05-25T08:27:52.205Z,1010.49
2019-05-25T08:28:52.197Z,1010.49
2019-05-25T08:29:52.183Z,1010.55
2019-05-25T08:30:52.213Z,1010.50
2019-05-25T08:31:52.161Z,1010.56
2019-05-25T08:32:52.155Z,1010.57
2019-05-25T08:33:52.176Z,1010.56
2019-05-25T08:34:52.178Z,1010.60
2019-05-25T08:35:52.119Z,1010.58
2019-05-25T08:36:52.129Z,1010.59
2019-05-25T08:37:52.104Z,1010.61
2019-05-25T08:38:54.826Z,1010.57
2019-05-25T08:39:52.082Z,1010.62
2019-05-25T08:40:52.073Z,1010.64
2019-05-25T08:41:52.057Z,1010.64
2019-05-25T08:42:52.066Z,1010.60
2019-05-25T08:43:52.033Z,1010.62
2019-05-25T08:44:52.020Z,1010.63
2019-05-25T08:45:52.005Z,1010.66
2019-05-25T08:46:55.221Z,1010.68
2019-05-25T08:47:52.017Z,1010.65
2019-05-25T08:48:52.009Z,1010.67
2019-05-25T08:49:51.968Z,1010.64
2019-05-25T08:50:51.953Z,1010.68
2019-05-25T08:51:54.822Z,1010.67
2019-05-25T08:52:51.959Z,1010.66
2019-05-25T08:53:51.927Z,1010.67
2019-05-25T08:54:51.910Z,1010.66
2019-05-25T08:55:51.894Z,1010.67
2019-05-25T08:56:51.886Z,1010.71
2019-05-25T08:57:51.879Z,1010.66
2019-05-25T08:58:55.368Z,1010.67
2019-05-25T08:59:51.854Z,1010.66
2019-05-25T09:00:51.869Z,1010.69
2019-05-25T09:01:51.834Z,1010.67
2019-05-25T09:02:51.820Z,1010.70
2019-05-25T09:03:51.824Z,1010.70
2019-05-25T09:04:51.799Z,1010.67
2019-05-25T09:05:51.788Z,1010.68
2019-05-25T09:06:51.814Z,1010.66
2019-05-25T09:07:51.765Z,1010.68
2019-05-25T09:08:51.784Z,1010.72
2019-05-25T09:09:51.740Z,1010.73
2019-05-25T09:10:51.742Z,1010.77
2019-05-25T09:11:51.724Z,1010.75
2019-05-25T09:12:51.711Z,1010.76
2019-05-25T09:13:51.737Z,1010.72
2019-05-25T09:14:51.727Z,1010.73
2019-05-25T09:15:51.706Z,1010.72
2019-05-25T09:16:51.669Z,1010.80
2019-05-25T09:17:51.657Z,1010.82
2019-05-25T09:18:51.645Z,1010.76
2019-05-25T09:19:51.666Z,1010.77
2019-05-25T09:20:51.655Z,1010.80
2019-05-25T09:22:02.209Z,1010.75
2019-05-25T09:22:52.596Z,1010.80
2019-05-25T09:23:51.593Z,1010.76
2019-05-25T09:24:51.603Z,1010.80
2019-05-25T09:25:51.634Z,1010.82
2019-05-25T09:26:51.593Z,1010.87
2019-05-25T09:27:51.678Z,1010.80
2019-05-25T09:29:04.029Z,1010.84
2019-05-25T09:29:52.544Z,1010.85
2019-05-25T09:30:51.533Z,1010.90
2019-05-25T09:31:51.503Z,1010.89
2019-05-25T09:32:51.488Z,1011.18
2019-05-25T09:33:51.477Z,1010.94
2019-05-25T09:34:51.508Z,1011.24
2019-05-25T09:35:51.461Z,1010.99
2019-05-25T09:36:51.444Z,1011.02
2019-05-25T09:37:51.436Z,1010.84
2019-05-25T09:38:51.420Z,1010.91
2019-05-25T09:39:51.416Z,1010.83
2019-05-25T09:40:51.531Z,1010.84
2019-05-25T09:41:51.387Z,1010.91
2019-05-25T09:42:51.389Z,1010.87
2019-05-25T09:43:51.371Z,1010.88
2019-05-25T09:44:51.362Z,1010.90
2019-05-25T09:45:51.372Z,1010.91
2019-05-25T09:46:51.335Z,1010.87
2019-05-25T09:47:51.334Z,1010.89
2019-05-25T09:48:51.311Z,1010.93
2019-05-25T09:49:51.310Z,1010.91
2019-05-25T09:50:51.316Z,1010.88
2019-05-25T09:51:51.307Z,1010.98
2019-05-25T09:52:51.272Z,1010.93
2019-05-25T09:53:51.261Z,1010.92
2019-05-25T09:54:51.796Z,1010.91
2019-05-25T09:55:51.238Z,1010.87
2019-05-25T09:56:51.254Z,1010.94
2019-05-25T09:57:51.290Z,1010.90
2019-05-25T09:58:51.208Z,1010.90
2019-05-25T09:59:51.217Z,1010.91
2019-05-25T10:00:51.195Z,1010.91
2019-05-25T10:01:51.192Z,1010.91
2019-05-25T10:02:51.586Z,1010.85
2019-05-25T10:03:51.217Z,1010.86
2019-05-25T10:04:51.141Z,1010.92
2019-05-25T10:05:51.125Z,1010.92
2019-05-25T10:06:51.139Z,1010.87
2019-05-25T10:07:51.199Z,1010.87
2019-05-25T10:08:51.148Z,1010.92
2019-05-25T10:09:51.099Z,1010.90
2019-05-25T10:10:51.071Z,1010.86
2019-05-25T10:11:51.059Z,1010.89
2019-05-25T10:12:51.048Z,1010.87
2019-05-25T10:13:51.138Z,1010.79
2019-05-25T10:14:51.059Z,1010.85
2019-05-25T10:15:51.020Z,1010.75
2019-05-25T10:16:51.008Z,1010.82
2019-05-25T10:17:50.994Z,1010.84
2019-05-25T10:18:50.988Z,1010.83
2019-05-25T10:19:51.004Z,1010.80
2019-05-25T10:20:50.967Z,1010.82
2019-05-25T10:21:51.023Z,1010.87
2019-05-25T10:22:50.945Z,1010.88
2019-05-25T10:23:50.942Z,1010.82
2019-05-25T10:24:50.941Z,1010.82
2019-05-25T10:25:51.039Z,1010.83
2019-05-25T10:26:58.566Z,1010.85
2019-05-25T10:27:50.896Z,1010.81
2019-05-25T10:28:50.885Z,1010.81
2019-05-25T10:29:50.863Z,1010.84
2019-05-25T10:30:50.879Z,1010.89
2019-05-25T10:31:50.841Z,1010.83
2019-05-25T10:32:50.826Z,1010.80
2019-05-25T10:33:50.832Z,1010.77
2019-05-25T10:34:50.809Z,1010.82
2019-05-25T10:35:50.835Z,1010.87
2019-05-25T10:36:50.782Z,1010.84
2019-05-25T10:37:50.772Z,1010.86
2019-05-25T10:38:50.814Z,1010.87
2019-05-25T10:39:50.783Z,1010.87
2019-05-25T10:40:50.769Z,1010.88
2019-05-25T10:41:50.799Z,1010.92
2019-05-25T10:42:50.738Z,1010.89
2019-05-25T10:43:50.734Z,1010.91
2019-05-25T10:44:50.694Z,1010.87
2019-05-25T10:45:50.686Z,1010.91
2019-05-25T10:46:50.717Z,1010.92
2019-05-25T10:47:50.669Z,1010.94
2019-05-25T10:48:50.662Z,1010.94
2019-05-25T10:49:50.644Z,1010.96
2019-05-25T10:50:50.642Z,1010.92
2019-05-25T10:51:50.639Z,1010.84
2019-05-25T10:52:50.609Z,1010.87
2019-05-25T10:53:50.597Z,1010.94
2019-05-25T10:54:50.591Z,1010.88
2019-05-25T10:55:50.573Z,1010.86
2019-05-25T10:56:50.594Z,1010.89
2019-05-25T10:57:50.548Z,1010.88
2019-05-25T10:58:50.568Z,1010.87
2019-05-25T10:59:53.195Z,1010.87
2019-05-25T11:00:50.527Z,1010.91
2019-05-25T11:01:50.515Z,1010.84
2019-05-25T11:02:50.500Z,1010.87
2019-05-25T11:03:50.516Z,1010.83
2019-05-25T11:04:50.473Z,1010.81
2019-05-25T11:05:50.466Z,1010.85
2019-05-25T11:06:50.455Z,1010.83
2019-05-25T11:07:50.444Z,1010.76
2019-05-25T11:08:50.463Z,1010.82
2019-05-25T11:09:50.428Z,1010.84
2019-05-25T11:10:50.447Z,1010.84
2019-05-25T11:11:50.398Z,1010.85
2019-05-25T11:12:50.397Z,1010.83
2019-05-25T11:13:50.395Z,1010.88
2019-05-25T11:14:50.369Z,1010.87
2019-05-25T11:15:50.375Z,1010.92
2019-05-25T11:16:50.380Z,1010.88
2019-05-25T11:17:50.365Z,1010.91
2019-05-25T11:18:50.344Z,1010.81
2019-05-25T11:19:50.305Z,1010.81
2019-05-25T11:20:50.305Z,1010.79
2019-05-25T11:21:50.311Z,1010.79
2019-05-25T11:22:50.273Z,1010.82
2019-05-25T11:23:50.296Z,1010.80
2019-05-25T11:24:50.264Z,1010.80
2019-05-25T11:25:50.247Z,1010.81
2019-05-25T11:26:50.259Z,1010.80
2019-05-25T11:27:50.225Z,1010.76
2019-05-25T11:28:50.231Z,1010.72
2019-05-25T11:29:50.198Z,1010.72
2019-05-25T11:30:50.189Z,1010.71
2019-05-25T11:31:56.650Z,1010.72
2019-05-25T11:32:51.171Z,1010.74
2019-05-25T11:33:50.153Z,1010.70
2019-05-25T11:34:50.183Z,1010.68
2019-05-25T11:35:50.139Z,1010.71
2019-05-25T11:36:50.125Z,1010.73
2019-05-25T11:37:50.111Z,1010.71
2019-05-25T11:38:51.192Z,1010.73
2019-05-25T11:39:50.097Z,1010.72
2019-05-25T11:40:50.116Z,1010.73
2019-05-25T11:41:50.071Z,1010.75
2019-05-25T11:42:50.057Z,1010.76
2019-05-25T11:43:50.052Z,1010.74
2019-05-25T11:44:50.032Z,1010.79
2019-05-25T11:45:50.084Z,1010.82
2019-05-25T11:46:50.016Z,1010.80
2019-05-25T11:47:50.017Z,1010.84
2019-05-25T11:48:49.989Z,1010.79
2019-05-25T11:49:49.990Z,1010.81
2019-05-25T11:50:50.012Z,1010.80
2019-05-25T11:51:49.954Z,1010.80
2019-05-25T11:52:49.985Z,1010.77
2019-05-25T11:53:49.940Z,1010.79
2019-05-25T11:54:49.927Z,1010.85
2019-05-25T11:55:49.917Z,1010.76
2019-05-25T11:56:49.945Z,1010.76
2019-05-25T11:57:49.922Z,1010.74
2019-05-25T11:58:49.925Z,1010.83
2019-05-25T11:59:49.867Z,1010.81
2019-05-25T12:00:51.730Z,1010.77
2019-05-25T12:01:49.873Z,1010.78
2019-05-25T12:02:49.837Z,1010.79
2019-05-25T12:03:49.821Z,1010.79
2019-05-25T12:04:49.813Z,1010.77
2019-05-25T12:05:49.836Z,1010.82